Time;durP1;ratioP1;P1;durP2;ratioP2;P2;SDS_P1;SDS_P2;PMS_P1;PMS_P2;Temp;Humidity;BMP_temperature;BMP_pressure;BME280_temperature;BME280_humidity;BME280_pressure;Samples;Min_cycle;Max_cycle;Signal;HPM_P1;HPM_P2
2023/09/04 00:00:15;;;;;;;7.20;2.00;;;;;;;15.47;82.23;100074.11;107774;1308;23293;-50
2023/09/04 00:02:41;;;;;;;5.00;1.80;;;;;;;15.46;81.48;100078.58;107773;1307;22438;-47
2023/09/04 00:05:07;;;;;;;4.50;2.00;;;;;;;15.45;81.78;100080.61;107784;1307;22265;-45
2023/09/04 00:07:32;;;;;;;3.50;2.00;;;;;;;15.44;81.42;100081.71;107806;1308;22254;-43
2023/09/04 00:09:58;;;;;;;7.20;2.10;;;;;;;15.43;81.45;100079.66;107775;1308;23046;-49
2023/09/04 00:12:25;;;;;;;4.00;2.10;;;;;;;15.40;81.26;100079.48;107813;1308;22413;-43
2023/09/04 00:14:51;;;;;;;5.70;2.00;;;;;;;15.41;81.17;100079.63;107755;1308;22650;-44
2023/09/04 00:17:17;;;;;;;5.10;1.80;;;;;;;15.39;80.92;100080.09;107800;1308;22383;-44
2023/09/04 00:19:42;;;;;;;6.30;1.90;;;;;;;15.39;81.30;100082.75;107803;1308;22260;-52
2023/09/04 00:22:08;;;;;;;2.90;2.10;;;;;;;15.37;81.63;100088.70;107796;1308;23182;-50
2023/09/04 00:24:33;;;;;;;3.90;2.00;;;;;;;15.36;81.41;100092.10;107801;1308;22563;-43
2023/09/04 00:26:58;;;;;;;6.00;2.60;;;;;;;15.38;81.24;100099.97;107796;1308;25154;-44
2023/09/04 00:29:23;;;;;;;3.50;2.00;;;;;;;15.37;81.54;100104.25;107780;1308;22258;-44
2023/09/04 00:31:49;;;;;;;5.50;2.20;;;;;;;15.34;81.99;100104.20;107779;1308;22422;-43
2023/09/04 00:34:14;;;;;;;2.90;1.90;;;;;;;15.35;81.75;100110.38;107766;1308;22237;-42
2023/09/04 00:36:40;;;;;;;8.30;2.60;;;;;;;15.35;81.18;100110.55;107772;1308;22236;-44
2023/09/04 00:39:05;;;;;;;6.20;2.10;;;;;;;15.32;81.31;100112.15;107791;1308;22431;-47
2023/09/04 00:41:30;;;;;;;4.00;2.30;;;;;;;15.31;81.08;100109.56;107788;1308;22258;-49
2023/09/04 00:43:55;;;;;;;6.30;2.20;;;;;;;15.26;82.13;100107.23;107809;1308;23064;-42
2023/09/04 00:46:21;;;;;;;5.00;2.10;;;;;;;15.24;82.17;100106.80;107817;1308;22245;-48
2023/09/04 00:48:47;;;;;;;4.90;2.40;;;;;;;15.26;81.42;100104.92;107772;1308;22545;-43
2023/09/04 00:51:13;;;;;;;10.00;2.50;;;;;;;15.25;81.24;100102.19;107809;1308;22318;-48
2023/09/04 00:53:39;;;;;;;5.50;2.10;;;;;;;15.21;81.32;100100.79;107776;1308;22237;-44
2023/09/04 00:56:06;;;;;;;3.20;1.90;;;;;;;15.15;82.57;100101.73;107798;1308;22552;-49
2023/09/04 00:58:34;;;;;;;3.50;1.90;;;;;;;15.10;82.87;100100.23;107775;1308;22422;-45
2023/09/04 01:01:01;;;;;;;6.10;2.10;;;;;;;15.06;82.19;100102.93;107786;1308;22383;-46
2023/09/04 01:03:28;;;;;;;4.10;2.10;;;;;;;15.03;82.66;100102.77;107784;1308;22416;-44
2023/09/04 01:05:53;;;;;;;4.80;2.30;;;;;;;15.02;83.01;100099.83;107778;1308;22998;-46
2023/09/04 01:08:19;;;;;;;7.10;2.40;;;;;;;14.98;83.65;100098.13;107761;1308;22288;-43
2023/09/04 01:10:53;;;;;;;4.60;2.10;;;;;;;14.99;83.23;100099.51;107805;1290;22414;-46
2023/09/04 01:13:24;;;;;;;4.10;1.80;;;;;;;14.97;83.90;100096.45;107703;1308;22999;-51
2023/09/04 01:15:51;;;;;;;5.10;2.00;;;;;;;14.95;84.31;100092.31;107800;1297;22473;-43
2023/09/04 01:18:17;;;;;;;8.90;2.30;;;;;;;14.95;83.67;100090.03;107788;1308;23469;-42
2023/09/04 01:20:43;;;;;;;6.00;2.60;;;;;;;14.93;83.90;100084.52;107799;1308;22246;-46
2023/09/04 01:23:08;;;;;;;7.70;2.50;;;;;;;14.92;84.10;100083.82;107797;1284;22261;-49
2023/09/04 01:25:49;;;;;;;6.20;2.20;;;;;;;14.92;84.31;100080.51;107794;1308;22225;-46
2023/09/04 01:28:28;;;;;;;4.60;2.40;;;;;;;14.88;83.59;100081.78;107818;1308;22423;-48
2023/09/04 01:31:19;;;;;;;5.40;2.40;;;;;;;14.85;84.02;100082.50;107793;1308;23755;-43
2023/09/04 01:33:57;;;;;;;5.70;2.70;;;;;;;14.81;84.54;100087.16;107803;1308;22421;-48
2023/09/04 01:36:25;;;;;;;3.70;2.20;;;;;;;14.81;84.31;100091.26;107586;1308;22315;-49
2023/09/04 01:38:51;;;;;;;10.40;2.60;;;;;;;14.78;84.09;100091.58;107794;1308;22272;-41
2023/09/04 01:41:16;;;;;;;7.10;2.30;;;;;;;14.74;84.92;100093.23;107819;1308;22956;-44
2023/09/04 01:43:41;;;;;;;6.10;2.30;;;;;;;14.75;83.91;100089.64;107801;1308;22946;-49
2023/09/04 01:46:07;;;;;;;4.70;2.30;;;;;;;14.73;85.16;100093.09;107791;1308;23284;-49
2023/09/04 01:48:33;;;;;;;9.40;2.60;;;;;;;14.75;84.65;100099.19;107786;1308;22408;-43
2023/09/04 01:50:58;;;;;;;4.00;2.30;;;;;;;14.72;85.54;100100.27;107770;1308;22430;-48
2023/09/04 01:53:24;;;;;;;3.70;2.10;;;;;;;14.73;84.84;100102.30;107798;1308;22263;-47
2023/09/04 01:55:50;;;;;;;5.00;2.30;;;;;;;14.71;85.25;100107.54;107803;1291;22230;-50
2023/09/04 01:58:15;;;;;;;9.60;2.50;;;;;;;14.72;84.85;100112.58;107620;1308;22460;-44
2023/09/04 02:00:40;;;;;;;4.10;2.50;;;;;;;14.71;85.89;100118.30;107807;1290;22247;-46
2023/09/04 02:03:06;;;;;;;4.50;2.00;;;;;;;14.68;86.36;100117.22;107796;1308;22419;-40
2023/09/04 02:05:31;;;;;;;4.40;2.30;;;;;;;14.69;86.26;100127.27;107791;1308;22344;-45
2023/09/04 02:07:56;;;;;;;6.90;2.30;;;;;;;14.65;86.85;100131.86;107816;1308;22476;-46
2023/09/04 02:10:23;;;;;;;5.70;2.30;;;;;;;14.66;86.45;100134.81;107764;1308;22271;-42
2023/09/04 02:12:49;;;;;;;6.50;2.30;;;;;;;14.68;86.48;100134.52;107783;1308;22416;-46
2023/09/04 02:15:14;;;;;;;5.10;2.10;;;;;;;14.71;85.86;100136.81;107798;1308;22134;-47
2023/09/04 02:17:39;;;;;;;7.60;2.40;;;;;;;14.73;86.04;100137.42;107768;1308;22256;-42
2023/09/04 02:20:06;;;;;;;3.50;2.40;;;;;;;14.74;86.36;100135.58;107783;1308;22497;-46
2023/09/04 02:22:31;;;;;;;14.50;2.60;;;;;;;14.76;86.15;100134.80;107789;1308;22256;-49
2023/09/04 02:24:56;;;;;;;5.70;2.40;;;;;;;14.76;86.08;100130.20;107766;1308;22257;-46
2023/09/04 02:27:22;;;;;;;5.40;2.90;;;;;;;14.76;85.58;100133.14;107777;1308;22233;-49
2023/09/04 02:29:47;;;;;;;6.10;2.50;;;;;;;14.73;86.04;100136.88;107778;1308;22276;-47
2023/09/04 02:32:12;;;;;;;4.30;2.20;;;;;;;14.73;86.24;100137.92;107779;1308;22783;-47
2023/09/04 02:34:40;;;;;;;6.80;2.90;;;;;;;14.72;86.27;100129.54;107751;1308;22186;-46
2023/09/04 02:37:05;;;;;;;;;;;;;;;14.74;86.53;100133.85;107812;1308;23404;-41
2023/09/04 02:39:30;;;;;;;5.40;2.30;;;;;;;14.72;87.26;100140.83;107790;1308;22255;-44
2023/09/04 02:41:55;;;;;;;6.50;2.00;;;;;;;14.73;87.06;100135.13;107776;1308;22407;-42
2023/09/04 02:44:21;;;;;;;3.90;2.30;;;;;;;14.75;86.52;100133.40;107800;1308;22254;-49
2023/09/04 02:46:46;;;;;;;8.00;2.40;;;;;;;14.74;86.78;100130.34;107781;1308;22379;-48
2023/09/04 02:49:11;;;;;;;6.60;2.40;;;;;;;14.72;87.30;100133.63;107776;1290;23141;-47
2023/09/04 02:51:37;;;;;;;4.30;2.60;;;;;;;14.72;86.64;100140.11;107761;1308;22421;-52
2023/09/04 02:54:02;;;;;;;4.80;2.60;;;;;;;14.73;86.44;100140.80;107754;1308;22551;-49
2023/09/04 02:56:27;;;;;;;8.60;2.90;;;;;;;14.71;86.88;100140.17;107778;1308;22426;-50
2023/09/04 02:58:52;;;;;;;6.60;2.50;;;;;;;14.68;88.11;100137.20;107770;1308;22238;-40
2023/09/04 03:03:57;;;;;;;6.40;2.40;;;;;;;14.72;87.24;100128.31;107433;1300;546111;-40
2023/09/04 03:06:22;;;;;;;4.50;2.40;;;;;;;14.68;87.56;100120.94;107747;1298;23200;-52
2023/09/04 03:08:47;;;;;;;7.80;2.40;;;;;;;14.69;87.23;100120.70;107708;1301;22353;-46
2023/09/04 03:11:13;;;;;;;8.60;2.40;;;;;;;14.68;86.89;100126.98;107718;1308;22413;-43
2023/09/04 03:13:39;;;;;;;5.40;2.60;;;;;;;14.68;86.53;100131.70;107729;1308;23100;-45
2023/09/04 03:16:07;;;;;;;5.90;2.30;;;;;;;14.66;88.02;100133.59;107722;1308;22236;-42
2023/09/04 03:18:34;;;;;;;8.00;2.50;;;;;;;14.64;88.21;100132.12;107864;1304;129482;-42
2023/09/04 03:21:01;;;;;;;4.60;2.30;;;;;;;14.65;87.85;100134.39;107985;1292;22516;-47
2023/09/04 03:23:26;;;;;;;9.50;2.10;;;;;;;14.64;88.28;100133.34;107941;1301;22460;-41
2023/09/04 03:25:52;;;;;;;9.70;2.70;;;;;;;14.64;87.96;100130.20;107987;1283;22251;-44
2023/09/04 03:28:17;;;;;;;7.20;2.60;;;;;;;14.63;87.84;100135.20;107999;1306;23038;-43
2023/09/04 03:30:42;;;;;;;6.60;2.60;;;;;;;14.64;88.19;100138.65;107988;1306;22315;-42
2023/09/04 03:33:07;;;;;;;6.10;2.30;;;;;;;14.68;88.43;100143.56;108000;1301;23218;-49
2023/09/04 03:35:33;;;;;;;7.80;2.60;;;;;;;14.67;88.40;100143.41;108006;1306;22246;-51
2023/09/04 03:37:58;;;;;;;5.50;2.50;;;;;;;14.69;88.00;100144.38;107997;1306;22512;-43
